Lanzarote, Canary Islands

8:21 PM WEST on July 30, 2014 (GMT +0100)
Lanzarote (GCRR) Elev 69 ft | 28.95 °N, 13.60 °W | Change Station

Current weather conditions updated 21 minutes ago

Partly Cloudy
Partly Cloudy
75 °F
Feels Like 75 °F
N
16
Wind Variable Wind from North

Tomorrow is forecast to be Cooler than today.

Today
High -- | Low -- °F
--% Chance of Precip.
Yesterday
High -- | Low -- °F
Precip. -- in
7:14 AM 8:47 PM
Waxing Crescent, 13% visible
Pressure 30.01 in
Visibility 6.2 miles
Clouds Few 3000 ft
Dew Point 61 °F
Humidity 61%
Rainfall 0.00 in
Snow Depth Not available.
UV 0 out of 12
Pollen Not available.
Air Quality Not available.
Flu Activity Not available.
METAR GCRR 301900Z 36014KT 9999 FEW030 24/16 Q1016

More Conditions Fewer Conditions

Pressure 30.01 in
Visibility 6.2 miles
Clouds Few 3000 ft
Dew Point 61 °F
Humidity 61%
Rainfall 0.00 in
Snow Depth Not available.
UV 0 out of 12
Pollen Not available.
Air Quality Not available.
Flu Activity Not available.
METAR GCRR 301900Z 36014KT 9999 FEW030 24/16 Q1016

More Conditions Fewer Conditions

10-Day Weather Forecast

Almanac

Astronomy

Jul. 30, 2014 Rise Set
Actual Time 7:14 AM WEST 8:47 PM WEST
Civil Twilight 6:48 AM WEST 9:12 PM WEST
Nautical Twilight 6:17 AM WEST 9:43 PM WEST
Astronomical Twilight 5:45 AM WEST 10:15 PM WEST
Moon 10:14 AM WEST 10:45 PM WEST
Length of Visible Light 14h 24m
Length of Day
13h 33m
Tomorrow will be 1m 16s shorter.
Waxing Crescent, 13% of the Moon is Illuminated
Today
Waxing Crescent
Aug 3
First Quarter
Aug 10
Full
Aug 17
Last Quarter
Aug 25
New

Today's Extremes

Country Highs Country Lows

Community

WunderPhotos

Upload Photos

1,739,162 photos uploaded!

WunderBlogs® & News

Nearby

Snow Depth

Not available.

Earthquake Activity

City Distance Mag. Time & Date
No recent earthquake activity has been reported nearby.
Minimum magnitude displayed is 2.5.

Coastal Water Temperatures

Place Temperature
No Stations Reporting

Nearby Weather Stations

Station Location Temp. Heat Index Dew Point Humidity Wind Precip. Elev Updated Type
Arrecife 73.1 °F 75 °F 62 °F 69% North  at  15.0 mph 0.00 in / hr 154 ft 8:17 PM BST Normal
Lanzarote, Playa Blanca 74.3 °F 77 °F 50 °F 42% North  at  7.0 mph 0.00 in / hr 85 ft 8:00 PM BST Normal
Lanzarote, Playa Blanca 74.1 °F 74 °F 69 °F 85% NNE  at  10.3 mph 0.00 in / hr 50 ft 8:21 PM BST Rapid Fire

Show More Stations Show Fewer Stations